Time;durP1;ratioP1;P1;durP2;ratioP2;P2;SDS_P1;SDS_P2;PMS_P1;PMS_P2;Temp;Humidity;BMP_temperature;BMP_pressure;BME280_temperature;BME280_humidity;BME280_pressure;Samples;Min_cycle;Max_cycle;Signal;HPM_P1;HPM_P2
2022/03/14 00:01:16;;;;;;;14.73;10.00;;;10.50;71.70;;;;;;5040156;28;20224;-69
2022/03/14 00:03:50;;;;;;;15.60;10.50;;;10.50;71.00;;;;;;5038004;28;20821;-69
2022/03/14 00:06:17;;;;;;;14.67;9.97;;;10.50;70.30;;;;;;5041144;28;20534;-69
2022/03/14 00:08:44;;;;;;;20.17;9.40;;;10.40;71.30;;;;;;5022621;28;20481;-68
2022/03/14 00:11:14;;;;;;;14.30;9.90;;;10.40;71.90;;;;;;5036914;28;21023;-69
2022/03/14 00:13:45;;;;;;;15.60;10.53;;;10.40;71.90;;;;;;5031312;28;20451;-69
2022/03/14 00:16:13;;;;;;;16.20;10.83;;;10.40;72.20;;;;;;5036906;28;20953;-68
2022/03/14 00:18:39;;;;;;;18.03;10.97;;;10.50;72.10;;;;;;5040095;28;20455;-70
2022/03/14 00:21:05;;;;;;;18.20;11.47;;;10.50;72.40;;;;;;5045375;28;20454;-68
2022/03/14 00:23:31;;;;;;;15.03;10.90;;;10.50;73.50;;;;;;5037311;28;20450;-68
2022/03/14 00:25:57;;;;;;;17.60;11.10;;;10.50;73.20;;;;;;5043145;28;20545;-69
2022/03/14 00:28:22;;;;;;;15.73;10.17;;;10.50;72.30;;;;;;5044509;28;20243;-69
2022/03/14 00:30:50;;;;;;;18.43;11.83;;;10.50;72.60;;;;;;5026029;28;20232;-69
2022/03/14 00:33:16;;;;;;;15.70;10.93;;;10.50;72.70;;;;;;5019444;28;20446;-68
2022/03/14 00:35:41;;;;;;;16.30;9.60;;;10.50;72.70;;;;;;5041106;28;20232;-69
2022/03/14 00:38:07;;;;;;;16.53;10.17;;;10.50;71.70;;;;;;5039114;28;20220;-69
2022/03/14 00:40:34;;;;;;;19.63;11.33;;;10.40;71.40;;;;;;5035655;28;20635;-68
2022/03/14 00:43:02;;;;;;;13.00;9.43;;;10.40;71.50;;;;;;5030923;28;20483;-69
2022/03/14 00:45:28;;;;;;;13.70;9.93;;;10.30;72.50;;;;;;5031190;28;20213;-69
2022/03/14 00:47:53;;;;;;;14.50;10.30;;;10.30;73.10;;;;;;5032227;28;20470;-70
2022/03/14 00:50:19;;;;;;;15.23;9.17;;;10.30;73.90;;;;;;5040463;28;20228;-70
2022/03/14 00:52:44;;;;;;;16.53;9.87;;;10.40;74.10;;;;;;5027840;28;20236;-69
2022/03/14 00:55:10;;;;;;;15.73;10.03;;;10.30;72.50;;;;;;5042517;28;20691;-67
2022/03/14 00:57:36;;;;;;;16.50;10.77;;;10.30;71.80;;;;;;5019410;28;20303;-68
2022/03/14 01:00:02;;;;;;;17.00;11.77;;;10.20;70.70;;;;;;5029718;28;20236;-70
2022/03/14 01:02:28;;;;;;;18.33;11.67;;;10.10;71.60;;;;;;5035720;28;20309;-70
2022/03/14 01:04:53;;;;;;;19.30;12.37;;;10.10;72.50;;;;;;5031543;28;20478;-67
2022/03/14 01:07:19;;;;;;;14.70;10.40;;;10.10;72.00;;;;;;5032292;28;20216;-68
2022/03/14 01:09:44;;;;;;;14.10;9.30;;;10.00;72.00;;;;;;5017095;28;20237;-68
2022/03/14 01:12:10;;;;;;;16.33;10.40;;;10.00;72.00;;;;;;5038166;28;20230;-68
2022/03/14 01:14:36;;;;;;;16.87;10.70;;;10.00;72.30;;;;;;5031087;28;20221;-69
2022/03/14 01:17:03;;;;;;;16.33;10.77;;;10.10;72.50;;;;;;5007137;28;20278;-69
2022/03/14 01:19:29;;;;;;;17.23;10.93;;;10.00;72.60;;;;;;5040092;28;20818;-69
2022/03/14 01:21:54;;;;;;;14.40;10.30;;;10.00;73.00;;;;;;5036031;28;20452;-69
2022/03/14 01:24:20;;;;;;;14.00;8.97;;;10.00;74.50;;;;;;5018384;28;20216;-68
2022/03/14 01:26:46;;;;;;;15.67;9.17;;;10.00;78.20;;;;;;5013949;28;20640;-68
2022/03/14 01:29:11;;;;;;;13.10;8.30;;;10.10;81.50;;;;;;5011356;28;20235;-68
2022/03/14 01:31:38;;;;;;;11.20;7.57;;;10.20;83.70;;;;;;5026547;28;20232;-68
2022/03/14 01:34:04;;;;;;;9.90;6.97;;;10.20;89.70;;;;;;5038389;28;20260;-68
2022/03/14 01:36:29;;;;;;;7.33;5.70;;;10.30;92.10;;;;;;5037749;28;20455;-68
2022/03/14 01:38:55;;;;;;;12.13;6.40;;;10.40;92.70;;;;;;5039280;28;20228;-69
2022/03/14 01:41:22;;;;;;;9.53;6.40;;;10.40;94.20;;;;;;5040585;28;20583;-70
2022/03/14 01:43:49;;;;;;;11.40;5.90;;;10.50;95.40;;;;;;5030991;28;20462;-68
2022/03/14 01:46:16;;;;;;;9.63;6.40;;;10.50;95.90;;;;;;5041728;28;20508;-68
2022/03/14 01:48:43;;;;;;;9.97;7.10;;;10.50;96.70;;;;;;5020679;28;20983;-68
2022/03/14 01:51:13;;;;;;;7.67;5.63;;;10.50;97.90;;;;;;5046300;28;20458;-72
2022/03/14 01:53:40;;;;;;;13.83;7.00;;;10.50;98.20;;;;;;5035430;28;20834;-68
2022/03/14 01:56:06;;;;;;;9.60;6.93;;;10.50;99.30;;;;;;5025568;28;20586;-69
2022/03/14 01:58:31;;;;;;;9.40;6.67;;;10.40;99.90;;;;;;5021433;28;20459;-68
2022/03/14 02:00:57;;;;;;;10.10;5.93;;;10.30;99.90;;;;;;5037256;28;20463;-68
2022/03/14 02:03:23;;;;;;;8.87;6.13;;;10.30;99.90;;;;;;5039771;28;20603;-68
2022/03/14 02:05:49;;;;;;;6.87;4.90;;;10.20;99.90;;;;;;5018862;28;20220;-67
2022/03/14 02:08:15;;;;;;;8.10;5.77;;;10.20;99.90;;;;;;5026305;28;20233;-67
2022/03/14 02:10:41;;;;;;;8.07;5.13;;;10.20;99.90;;;;;;5037549;28;20747;-69
2022/03/14 02:13:09;;;;;;;7.00;5.50;;;10.20;99.90;;;;;;5032249;28;20495;-66
2022/03/14 02:15:36;;;;;;;6.77;5.03;;;10.10;99.90;;;;;;5030179;28;20637;-69
2022/03/14 02:18:02;;;;;;;8.13;5.30;;;10.10;99.90;;;;;;5036266;28;20466;-67
2022/03/14 02:20:27;;;;;;;6.53;4.87;;;10.10;99.90;;;;;;5030999;28;20452;-68
2022/03/14 02:22:53;;;;;;;8.40;5.37;;;10.00;99.90;;;;;;5037751;28;20458;-67
2022/03/14 02:25:19;;;;;;;8.17;4.33;;;10.00;99.90;;;;;;5016729;28;20224;-68
2022/03/14 02:27:45;;;;;;;6.23;4.80;;;10.00;99.90;;;;;;5029087;28;20236;-69
2022/03/14 02:30:11;;;;;;;4.73;4.00;;;10.00;99.90;;;;;;5037565;28;20259;-68
2022/03/14 02:32:41;;;;;;;5.90;4.47;;;10.00;99.90;;;;;;5034702;28;20217;-68
2022/03/14 02:35:10;;;;;;;4.60;3.63;;;10.00;99.90;;;;;;5027133;28;21055;-68
2022/03/14 02:37:36;;;;;;;6.87;4.20;;;9.90;99.90;;;;;;5031363;28;20448;-69
2022/03/14 02:40:04;;;;;;;5.87;4.67;;;10.00;99.90;;;;;;5028924;28;20514;-68
2022/03/14 02:42:30;;;;;;;5.97;3.67;;;9.90;99.90;;;;;;5034508;28;20574;-69
2022/03/14 02:44:56;;;;;;;4.77;3.83;;;9.90;99.90;;;;;;5031757;28;20560;-68
2022/03/14 02:47:22;;;;;;;3.73;3.33;;;9.90;99.90;;;;;;5050021;28;20470;-69
2022/03/14 02:49:48;;;;;;;6.63;3.90;;;9.90;99.90;;;;;;5035009;28;20259;-68
2022/03/14 02:52:13;;;;;;;3.17;2.87;;;9.90;99.90;;;;;;5030089;28;20224;-69
2022/03/14 02:54:43;;;;;;;4.60;3.27;;;9.90;99.90;;;;;;5026884;28;20458;-68
2022/03/14 02:57:09;;;;;;;2.83;2.53;;;9.90;99.90;;;;;;5043208;28;20502;-68
2022/03/14 02:59:35;;;;;;;2.70;2.50;;;9.90;99.90;;;;;;5028165;28;20467;-68
2022/03/14 03:02:02;;;;;;;3.50;2.67;;;9.90;99.90;;;;;;5028386;28;20467;-69
2022/03/14 03:04:27;;;;;;;2.53;2.33;;;9.90;99.90;;;;;;5035153;28;20451;-70
2022/03/14 03:06:57;;;;;;;5.70;2.90;;;9.90;99.90;;;;;;5048812;28;20458;-70
2022/03/14 03:09:26;;;;;;;3.30;2.53;;;9.90;99.90;;;;;;5040002;28;20228;-70
2022/03/14 03:11:53;;;;;;;3.80;2.37;;;9.90;99.90;;;;;;5026145;28;20517;-68
2022/03/14 03:14:19;;;;;;;3.70;2.77;;;9.90;99.90;;;;;;5035925;28;20446;-70
2022/03/14 03:16:45;;;;;;;2.40;2.20;;;9.90;99.90;;;;;;5048801;28;20584;-69
2022/03/14 03:19:12;;;;;;;3.03;2.73;;;9.90;99.90;;;;;;5046703;28;20458;-68
2022/03/14 03:21:39;;;;;;;3.07;2.53;;;9.90;99.90;;;;;;5034062;28;20459;-68
2022/03/14 03:24:07;;;;;;;2.27;2.07;;;9.90;99.90;;;;;;5045741;28;20275;-70
2022/03/14 03:26:37;;;;;;;2.60;2.40;;;9.90;99.90;;;;;;5033022;28;20478;-70
2022/03/14 03:29:04;;;;;;;2.30;2.07;;;9.90;99.90;;;;;;5043965;28;20562;-70
2022/03/14 03:31:29;;;;;;;2.73;2.13;;;9.90;99.90;;;;;;5045719;28;20458;-69
2022/03/14 03:33:55;;;;;;;8.40;2.43;;;9.90;99.90;;;;;;5046235;28;20466;-69
2022/03/14 03:36:21;;;;;;;2.40;2.20;;;9.90;99.90;;;;;;5022965;28;20292;-70
2022/03/14 03:38:46;;;;;;;2.00;1.80;;;9.90;99.90;;;;;;5032706;28;20216;-69
2022/03/14 03:41:14;;;;;;;3.03;2.47;;;9.90;99.90;;;;;;5029768;28;20235;-68
2022/03/14 03:43:40;;;;;;;2.80;2.03;;;9.90;99.90;;;;;;5040399;28;20439;-70
2022/03/14 03:46:06;;;;;;;5.10;2.00;;;9.90;99.90;;;;;;5036111;28;20255;-68
2022/03/14 03:48:32;;;;;;;3.00;2.27;;;9.90;99.90;;;;;;5047804;28;20683;-70
2022/03/14 03:50:57;;;;;;;2.20;1.87;;;9.90;99.90;;;;;;5044368;28;20542;-69
2022/03/14 03:53:23;;;;;;;2.20;2.00;;;9.90;99.90;;;;;;5033016;28;20224;-68
2022/03/14 03:55:49;;;;;;;3.03;2.20;;;10.00;99.90;;;;;;5039328;28;20224;-67
2022/03/14 03:58:16;;;;;;;2.53;2.20;;;9.90;99.90;;;;;;5042601;28;20220;-67
2022/03/14 04:00:43;;;;;;;2.33;1.87;;;9.90;99.90;;;;;;5024345;28;20462;-69
2022/03/14 04:03:09;;;;;;;2.40;1.97;;;9.90;99.90;;;;;;5029147;28;20446;-69
2022/03/14 04:05:39;;;;;;;2.13;1.83;;;10.00;99.90;;;;;;5052305;28;20223;-68
2022/03/14 04:08:08;;;;;;;2.57;2.10;;;10.00;99.90;;;;;;5036974;28;20723;-69
2022/03/14 04:10:33;;;;;;;2.30;2.07;;;10.00;99.90;;;;;;5032646;28;20902;-68
2022/03/14 04:13:02;;;;;;;2.37;2.17;;;10.00;99.90;;;;;;5026940;28;20547;-68
2022/03/14 04:15:28;;;;;;;2.47;1.80;;;10.00;99.90;;;;;;5035400;28;20227;-69
2022/03/14 04:17:57;;;;;;;2.40;2.20;;;10.00;99.90;;;;;;5050356;28;20477;-68
2022/03/14 04:20:23;;;;;;;1.83;1.70;;;10.00;99.90;;;;;;5039152;28;20439;-69
2022/03/14 04:22:50;;;;;;;2.80;2.03;;;10.10;99.90;;;;;;5028165;28;20502;-70
2022/03/14 04:25:16;;;;;;;2.00;1.63;;;10.10;99.90;;;;;;5027012;28;20977;-68
2022/03/14 04:27:42;;;;;;;2.20;1.80;;;10.00;99.90;;;;;;5011589;28;20455;-68
2022/03/14 04:30:08;;;;;;;2.43;1.80;;;10.00;99.90;;;;;;5021780;28;20235;-70
2022/03/14 04:32:34;;;;;;;2.23;1.83;;;10.00;99.90;;;;;;5030994;28;20228;-69
2022/03/14 04:35:00;;;;;;;1.73;1.40;;;10.00;99.90;;;;;;5025591;28;20997;-68
2022/03/14 04:37:26;;;;;;;2.80;2.03;;;10.00;99.90;;;;;;5032100;28;20227;-70
2022/03/14 04:39:51;;;;;;;2.80;2.00;;;10.00;99.90;;;;;;5036565;28;20307;-68
2022/03/14 04:42:20;;;;;;;1.70;1.60;;;10.00;99.90;;;;;;5034559;28;20220;-69
2022/03/14 04:44:49;;;;;;;2.70;2.10;;;10.00;99.90;;;;;;5038762;28;20248;-68
2022/03/14 04:47:16;;;;;;;2.33;2.07;;;10.00;99.90;;;;;;5042034;28;20455;-69
2022/03/14 04:49:42;;;;;;;3.43;2.23;;;9.90;99.90;;;;;;5034580;28;21021;-70
2022/03/14 04:52:08;;;;;;;1.97;1.80;;;9.80;99.90;;;;;;5023765;28;20471;-69
2022/03/14 04:54:34;;;;;;;2.20;2.00;;;9.80;99.90;;;;;;5052122;28;20476;-68
2022/03/14 04:56:59;;;;;;;4.30;2.70;;;9.70;99.90;;;;;;5032053;28;20470;-69
2022/03/14 04:59:25;;;;;;;4.00;2.80;;;9.70;99.90;;;;;;5021632;28;20221;-68
2022/03/14 05:01:51;;;;;;;2.87;2.57;;;9.70;99.90;;;;;;5044451;28;20264;-69
2022/03/14 05:04:16;;;;;;;7.93;2.90;;;9.60;99.90;;;;;;5028993;28;20220;-69
2022/03/14 05:06:42;;;;;;;2.60;2.40;;;9.50;99.90;;;;;;5029574;28;20217;-68
2022/03/14 05:09:08;;;;;;;3.70;2.63;;;9.50;99.90;;;;;;5011356;28;20618;-69
2022/03/14 05:11:34;;;;;;;1.77;1.67;;;9.50;99.90;;;;;;5015048;28;20225;-69
2022/03/14 05:14:00;;;;;;;5.30;2.83;;;9.40;99.90;;;;;;5032064;28;20216;-69
2022/03/14 05:16:25;;;;;;;2.00;1.87;;;9.40;99.90;;;;;;5034099;28;20224;-70
2022/03/14 05:18:51;;;;;;;1.83;1.70;;;9.40;99.90;;;;;;5049897;28;20227;-69
2022/03/14 05:21:17;;;;;;;2.00;1.50;;;9.40;99.90;;;;;;5039261;28;20254;-68
2022/03/14 05:23:42;;;;;;;2.33;2.00;;;9.40;99.90;;;;;;5033794;28;20252;-67
2022/03/14 05:26:08;;;;;;;2.30;1.63;;;9.40;99.90;;;;;;5022577;28;20340;-69
2022/03/14 05:28:34;;;;;;;2.53;2.33;;;9.40;99.90;;;;;;5019955;28;20720;-70
2022/03/14 05:31:00;;;;;;;2.40;1.77;;;9.30;99.90;;;;;;5036164;28;20216;-68
2022/03/14 05:33:25;;;;;;;2.13;1.77;;;9.30;99.90;;;;;;5023020;28;20452;-69
2022/03/14 05:35:52;;;;;;;4.47;1.77;;;9.30;99.90;;;;;;5011463;28;20267;-69
2022/03/14 05:38:17;;;;;;;1.33;1.00;;;9.30;99.90;;;;;;5021213;28;20247;-71
2022/03/14 05:40:43;;;;;;;1.30;1.20;;;9.20;99.90;;;;;;5019347;28;20972;-70
2022/03/14 05:43:10;;;;;;;1.60;1.07;;;9.20;99.90;;;;;;5047042;28;20224;-68
2022/03/14 05:45:37;;;;;;;1.20;1.10;;;9.20;99.90;;;;;;5034612;28;20224;-70
2022/03/14 05:48:03;;;;;;;2.40;1.30;;;9.20;99.90;;;;;;5036526;28;20467;-71
2022/03/14 05:50:29;;;;;;;1.20;0.93;;;9.10;99.90;;;;;;5038924;28;20475;-67
2022/03/14 05:52:55;;;;;;;1.70;1.00;;;9.10;99.90;;;;;;5042580;28;20462;-70
2022/03/14 05:55:21;;;;;;;4.10;1.17;;;9.10;99.90;;;;;;5050771;28;20220;-70
2022/03/14 05:57:47;;;;;;;2.93;1.20;;;9.10;99.90;;;;;;5048154;28;20808;-69
2022/03/14 06:00:16;;;;;;;1.40;1.30;;;9.10;99.90;;;;;;5031449;28;20566;-69
2022/03/14 06:02:46;;;;;;;1.63;1.10;;;9.00;99.90;;;;;;5038594;28;20753;-68
2022/03/14 06:05:13;;;;;;;3.90;1.27;;;9.00;99.90;;;;;;5013369;28;21003;-68
2022/03/14 06:07:38;;;;;;;1.40;1.20;;;9.00;99.90;;;;;;5033256;28;20884;-69
2022/03/14 06:10:05;;;;;;;3.13;0.90;;;9.00;99.90;;;;;;5033294;28;20537;-70
2022/03/14 06:12:31;;;;;;;1.40;1.30;;;8.90;99.90;;;;;;5028565;28;20239;-68
2022/03/14 06:14:58;;;;;;;1.10;1.10;;;8.90;99.90;;;;;;5030265;28;20452;-69
2022/03/14 06:17:25;;;;;;;2.60;1.20;;;8.90;99.90;;;;;;5049287;28;20307;-68
2022/03/14 06:19:51;;;;;;;1.67;1.13;;;8.90;99.90;;;;;;5050784;28;20493;-69
2022/03/14 06:22:18;;;;;;;1.40;1.27;;;8.90;99.90;;;;;;5043045;28;20503;-68
2022/03/14 06:24:46;;;;;;;3.97;1.67;;;8.90;99.90;;;;;;4988071;28;20474;-73
2022/03/14 06:27:13;;;;;;;1.80;1.33;;;9.00;99.90;;;;;;5016455;28;20460;-75
2022/03/14 06:29:39;;;;;;;2.30;1.70;;;9.00;99.90;;;;;;5011091;28;21176;-71
2022/03/14 06:32:05;;;;;;;1.83;1.37;;;8.90;99.90;;;;;;5040821;28;20538;-71
2022/03/14 06:34:33;;;;;;;2.07;1.80;;;8.90;99.90;;;;;;5038256;28;20228;-70
2022/03/14 06:36:59;;;;;;;2.03;1.00;;;9.00;99.90;;;;;;5030291;28;20815;-71
2022/03/14 06:39:25;;;;;;;1.90;1.63;;;9.00;99.90;;;;;;5027336;28;20704;-71
2022/03/14 06:41:52;;;;;;;3.90;2.50;;;9.10;99.90;;;;;;5042511;28;20221;-72
2022/03/14 06:44:19;;;;;;;3.33;2.47;;;9.10;99.90;;;;;;5022247;28;21010;-71
2022/03/14 06:46:45;;;;;;;2.30;2.10;;;9.10;99.90;;;;;;5034050;28;20466;-69
2022/03/14 06:49:14;;;;;;;2.83;1.63;;;9.10;99.90;;;;;;5034009;28;20482;-73
2022/03/14 06:51:42;;;;;;;4.00;2.20;;;9.10;99.90;;;;;;5036827;28;20531;-72
2022/03/14 06:54:09;;;;;;;3.80;2.07;;;9.20;99.90;;;;;;5028326;28;20458;-72
2022/03/14 06:56:38;;;;;;;2.10;1.87;;;9.20;99.90;;;;;;5025371;28;20534;-72
2022/03/14 06:59:04;;;;;;;2.23;1.70;;;9.10;99.90;;;;;;5029616;28;20556;-72
2022/03/14 07:01:30;;;;;;;3.50;2.10;;;9.10;99.90;;;;;;5032690;28;20224;-72
2022/03/14 07:03:56;;;;;;;2.43;1.97;;;9.10;99.90;;;;;;5028688;28;20246;-73
2022/03/14 07:06:22;;;;;;;2.60;2.27;;;9.10;99.90;;;;;;5038071;28;20455;-71
2022/03/14 07:08:48;;;;;;;2.90;2.23;;;9.10;99.90;;;;;;5035355;28;20457;-71
2022/03/14 07:11:14;;;;;;;3.10;2.50;;;9.10;99.90;;;;;;5036106;28;20458;-72
2022/03/14 07:13:40;;;;;;;7.00;3.40;;;9.20;99.90;;;;;;5027755;28;20557;-70
2022/03/14 07:16:05;;;;;;;6.23;2.77;;;9.10;99.90;;;;;;5038019;28;20601;-68
2022/03/14 07:18:31;;;;;;;4.43;3.13;;;9.10;99.90;;;;;;5035952;28;20703;-68
2022/03/14 07:20:57;;;;;;;3.43;2.10;;;9.10;99.90;;;;;;5037635;28;20219;-69
2022/03/14 07:23:23;;;;;;;4.20;2.77;;;9.10;99.90;;;;;;5019887;28;20224;-69
2022/03/14 07:25:51;;;;;;;5.10;2.47;;;9.10;99.90;;;;;;5038523;28;20457;-68
2022/03/14 07:28:18;;;;;;;9.03;3.30;;;9.00;99.90;;;;;;5020983;28;20632;-70
2022/03/14 07:30:45;;;;;;;2.83;2.07;;;9.00;99.90;;;;;;5040388;28;20532;-68
2022/03/14 07:33:11;;;;;;;3.00;2.13;;;9.10;99.90;;;;;;5038807;28;20848;-72
2022/03/14 07:35:38;;;;;;;4.77;2.80;;;9.10;99.90;;;;;;5056611;28;20458;-69
2022/03/14 07:38:04;;;;;;;7.90;2.83;;;9.10;99.90;;;;;;5038116;28;20480;-68
2022/03/14 07:40:31;;;;;;;5.40;3.50;;;9.10;99.90;;;;;;5038014;28;20481;-69
2022/03/14 07:42:59;;;;;;;2.93;2.30;;;9.10;99.90;;;;;;5044471;28;20623;-71
2022/03/14 07:45:30;;;;;;;2.53;2.13;;;9.10;99.90;;;;;;5035228;28;20451;-68
2022/03/14 07:47:58;;;;;;;8.30;2.83;;;9.10;99.90;;;;;;5036238;28;20470;-68
2022/03/14 07:50:25;;;;;;;5.90;2.93;;;9.10;99.90;;;;;;5031042;28;20523;-69
2022/03/14 07:52:51;;;;;;;4.80;2.67;;;9.10;99.90;;;;;;5048245;28;20470;-72
2022/03/14 07:55:18;;;;;;;6.67;2.90;;;9.10;99.90;;;;;;5050376;28;20462;-68
2022/03/14 07:57:44;;;;;;;4.17;3.03;;;9.20;99.90;;;;;;5044338;28;20269;-72
2022/03/14 08:00:15;;;;;;;4.70;2.67;;;9.20;99.90;;;;;;5044600;28;20962;-68
2022/03/14 08:02:42;;;;;;;3.30;2.70;;;9.20;99.90;;;;;;5027450;28;20481;-69
2022/03/14 08:05:09;;;;;;;4.67;2.60;;;9.20;99.90;;;;;;5035371;28;20466;-70
2022/03/14 08:07:35;;;;;;;3.07;2.20;;;9.30;99.90;;;;;;5017990;28;20463;-69
2022/03/14 08:10:04;;;;;;;3.50;2.63;;;9.30;99.90;;;;;;5020914;28;20479;-69
2022/03/14 08:12:31;;;;;;;3.40;2.57;;;9.30;99.90;;;;;;5034542;28;20258;-69
2022/03/14 08:14:57;;;;;;;3.90;3.03;;;9.30;99.90;;;;;;5031398;28;20532;-69
2022/03/14 08:17:23;;;;;;;7.20;2.33;;;9.40;99.90;;;;;;5030971;28;20463;-68
2022/03/14 08:19:49;;;;;;;6.90;2.60;;;9.40;99.90;;;;;;5028768;28;20467;-72
2022/03/14 08:22:15;;;;;;;2.93;2.30;;;9.40;99.90;;;;;;5036882;28;20374;-70
2022/03/14 08:24:40;;;;;;;8.80;2.93;;;9.50;99.90;;;;;;5037822;28;20235;-71
2022/03/14 08:27:06;;;;;;;4.40;2.40;;;9.50;99.90;;;;;;5034531;28;20257;-68
2022/03/14 08:29:32;;;;;;;5.37;2.63;;;9.50;99.90;;;;;;5032692;28;20281;-71
2022/03/14 08:31:58;;;;;;;2.97;2.00;;;9.50;99.90;;;;;;5036316;28;20266;-69
2022/03/14 08:34:25;;;;;;;5.33;2.20;;;9.50;99.90;;;;;;5008686;28;20480;-69
2022/03/14 08:36:51;;;;;;;3.20;2.13;;;9.50;99.90;;;;;;5019601;28;20466;-73
2022/03/14 08:39:17;;;;;;;2.83;2.30;;;9.50;99.90;;;;;;5036742;28;20821;-69
2022/03/14 08:41:43;;;;;;;5.60;2.87;;;9.50;99.90;;;;;;5037731;28;20228;-71
2022/03/14 08:44:09;;;;;;;3.77;2.60;;;9.50;99.90;;;;;;5043596;28;20466;-69
2022/03/14 08:46:35;;;;;;;3.93;3.00;;;9.50;99.90;;;;;;5028380;28;20217;-69
2022/03/14 08:49:02;;;;;;;5.33;2.83;;;9.50;99.90;;;;;;5034668;28;20710;-70
2022/03/14 08:51:28;;;;;;;11.83;3.43;;;9.60;99.90;;;;;;5032141;28;20478;-69
2022/03/14 08:53:54;;;;;;;4.80;3.00;;;9.60;99.90;;;;;;5025503;28;20451;-69
2022/03/14 08:56:21;;;;;;;3.20;2.47;;;9.70;99.90;;;;;;5030811;28;20273;-69
2022/03/14 08:58:47;;;;;;;6.47;2.93;;;9.70;99.90;;;;;;5051274;28;20840;-69
2022/03/14 09:01:15;;;;;;;4.60;2.80;;;9.80;99.90;;;;;;5043461;28;20208;-72
2022/03/14 09:03:42;;;;;;;5.13;2.97;;;9.80;99.90;;;;;;5027360;28;20764;-69
2022/03/14 09:06:08;;;;;;;5.23;2.67;;;9.80;99.90;;;;;;5027454;28;20455;-69
2022/03/14 09:08:34;;;;;;;3.30;2.13;;;9.90;99.90;;;;;;5034267;28;20471;-68
2022/03/14 09:11:01;;;;;;;4.93;2.30;;;10.00;99.90;;;;;;5037049;28;20694;-69
2022/03/14 09:13:28;;;;;;;3.57;2.30;;;10.10;99.90;;;;;;5043210;28;20468;-69
2022/03/14 09:15:54;;;;;;;3.47;2.37;;;10.20;99.90;;;;;;5029443;28;20503;-69
2022/03/14 09:18:21;;;;;;;2.37;1.80;;;10.30;99.90;;;;;;5040508;28;20592;-69
2022/03/14 09:20:49;;;;;;;7.63;2.40;;;10.40;99.90;;;;;;5052494;28;20459;-69
2022/03/14 09:23:20;;;;;;;4.10;2.27;;;10.50;99.90;;;;;;5025482;28;20484;-70
2022/03/14 09:25:48;;;;;;;2.10;1.90;;;10.50;99.90;;;;;;5047677;28;20458;-72
2022/03/14 09:28:14;;;;;;;3.20;2.10;;;10.50;99.90;;;;;;5024604;28;20456;-69
2022/03/14 09:30:40;;;;;;;6.73;2.57;;;10.50;99.90;;;;;;5036132;28;20520;-71
2022/03/14 09:33:06;;;;;;;2.37;2.17;;;10.50;99.90;;;;;;5027997;28;20459;-68
2022/03/14 09:35:33;;;;;;;1.70;1.50;;;10.50;99.90;;;;;;5035206;28;20217;-69
2022/03/14 09:38:01;;;;;;;2.40;1.80;;;10.60;99.90;;;;;;5027994;28;20220;-69
2022/03/14 09:40:30;;;;;;;2.60;2.20;;;10.50;99.90;;;;;;5030406;28;20458;-70
2022/03/14 09:42:59;;;;;;;4.47;2.23;;;10.50;99.90;;;;;;5035482;28;20231;-69
2022/03/14 09:45:25;;;;;;;3.30;2.10;;;10.50;99.90;;;;;;5028489;28;20547;-71
2022/03/14 09:47:56;;;;;;;2.43;2.20;;;10.50;99.90;;;;;;5035606;28;20566;-69
2022/03/14 09:50:33;;;;;;;4.33;1.93;;;10.50;99.90;;;;;;5030368;28;20459;-70
2022/03/14 09:53:04;;;;;;;3.20;1.70;;;10.50;99.90;;;;;;5034195;28;20462;-69
2022/03/14 09:55:30;;;;;;;2.60;1.70;;;10.50;99.90;;;;;;5037216;28;20458;-69
2022/03/14 09:57:56;;;;;;;3.90;2.00;;;10.50;99.90;;;;;;5032912;28;20461;-70
2022/03/14 10:00:22;;;;;;;4.00;1.93;;;10.50;99.90;;;;;;5030759;28;20281;-70
2022/03/14 10:02:48;;;;;;;6.80;2.37;;;10.50;99.90;;;;;;5030075;28;20463;-73
2022/03/14 10:05:16;;;;;;;3.73;2.33;;;10.60;99.90;;;;;;5030345;28;20273;-69
2022/03/14 10:07:43;;;;;;;4.47;2.40;;;10.70;99.90;;;;;;5031929;28;20466;-71
2022/03/14 10:10:13;;;;;;;1.90;1.80;;;10.70;99.90;;;;;;5030790;28;20981;-70
2022/03/14 10:12:40;;;;;;;6.10;1.90;;;10.80;99.90;;;;;;5036162;28;20486;-72
2022/03/14 10:15:06;;;;;;;2.63;1.83;;;10.90;99.90;;;;;;5027425;28;20523;-71
2022/03/14 10:17:35;;;;;;;2.30;1.70;;;10.90;99.90;;;;;;5029572;28;21040;-71
2022/03/14 10:20:02;;;;;;;3.43;1.73;;;10.90;99.90;;;;;;5032118;28;20547;-70
2022/03/14 10:22:39;;;;;;;2.40;1.77;;;10.90;99.90;;;;;;5029542;28;20612;-70
2022/03/14 10:25:11;;;;;;;2.97;1.60;;;10.90;99.90;;;;;;5040381;28;20460;-70
2022/03/14 10:27:39;;;;;;;7.03;2.20;;;10.90;99.90;;;;;;5039468;28;20456;-70
2022/03/14 10:30:20;;;;;;;3.17;1.57;;;11.00;99.90;;;;;;5009691;28;20463;-70
2022/03/14 10:32:47;;;;;;;3.47;2.40;;;11.00;99.90;;;;;;5013608;28;21035;-70
2022/03/14 10:35:20;;;;;;;4.03;2.40;;;11.10;99.90;;;;;;5045407;28;20463;-71
2022/03/14 10:38:01;;;;;;;2.73;2.30;;;11.20;99.90;;;;;;5030676;28;20529;-70
2022/03/14 10:40:36;;;;;;;9.90;6.73;;;11.20;99.90;;;;;;5014074;28;20462;-70
2022/03/14 10:43:06;;;;;;;11.60;7.70;;;11.20;99.90;;;;;;5028087;28;20467;-73
2022/03/14 10:45:31;;;;;;;8.27;6.27;;;11.20;99.90;;;;;;5043144;28;20451;-70
2022/03/14 10:47:58;;;;;;;13.50;5.27;;;11.20;99.90;;;;;;5032949;28;20801;-71
2022/03/14 10:50:37;;;;;;;10.00;7.10;;;11.20;99.90;;;;;;5028215;28;20242;-70
2022/03/14 10:53:11;;;;;;;6.00;4.90;;;11.20;99.90;;;;;;5034479;28;20467;-69
2022/03/14 10:55:47;;;;;;;5.17;3.90;;;11.10;99.90;;;;;;5032592;28;20454;-70
2022/03/14 10:58:19;;;;;;;4.93;3.60;;;11.10;99.90;;;;;;5016328;28;20517;-69
2022/03/14 11:00:53;;;;;;;6.77;4.83;;;11.00;99.90;;;;;;5027187;28;20966;-69
2022/03/14 11:03:25;;;;;;;10.23;3.67;;;11.00;99.90;;;;;;5042374;28;20513;-71
2022/03/14 11:05:51;;;;;;;2.77;2.47;;;11.00;99.90;;;;;;5033369;28;20470;-70
2022/03/14 11:08:33;;;;;;;3.87;2.60;;;10.90;99.90;;;;;;5030944;28;20475;-69
2022/03/14 11:11:16;;;;;;;3.40;3.07;;;10.90;99.90;;;;;;5029594;28;20634;-70
2022/03/14 11:14:00;;;;;;;4.63;3.83;;;10.90;99.90;;;;;;5032974;28;20513;-73
2022/03/14 11:16:29;;;;;;;4.00;3.20;;;10.90;99.90;;;;;;5033215;28;20508;-69
2022/03/14 11:18:54;;;;;;;4.07;2.90;;;10.90;99.90;;;;;;5033727;28;20541;-70
2022/03/14 11:21:24;;;;;;;2.87;2.57;;;10.90;99.90;;;;;;5034138;28;20564;-70
2022/03/14 11:23:51;;;;;;;2.50;2.30;;;10.90;99.90;;;;;;5033318;28;20490;-70
2022/03/14 11:26:20;;;;;;;4.17;2.50;;;10.80;99.90;;;;;;5029628;28;21207;-70
2022/03/14 11:28:48;;;;;;;4.10;2.80;;;10.80;99.90;;;;;;5030459;28;20978;-70
2022/03/14 11:31:14;;;;;;;5.87;4.33;;;10.80;99.90;;;;;;5030644;28;20474;-70
2022/03/14 11:33:43;;;;;;;6.53;3.87;;;10.80;99.90;;;;;;5046632;28;20462;-69
2022/03/14 11:36:09;;;;;;;2.60;2.37;;;10.80;99.90;;;;;;5035955;28;20881;-70
2022/03/14 11:38:37;;;;;;;4.37;2.77;;;10.80;99.90;;;;;;5011880;28;20467;-70
2022/03/14 11:41:03;;;;;;;3.07;2.37;;;10.80;99.90;;;;;;5027955;28;20518;-70
2022/03/14 11:43:30;;;;;;;4.03;2.00;;;10.80;99.90;;;;;;5031504;28;20455;-71
2022/03/14 11:46:00;;;;;;;2.10;1.43;;;10.80;99.90;;;;;;5024180;28;20459;-69
2022/03/14 11:48:31;;;;;;;3.90;2.00;;;10.80;99.90;;;;;;5026236;28;20455;-70
2022/03/14 11:51:06;;;;;;;2.03;1.30;;;10.80;99.90;;;;;;5039327;28;20467;-69
2022/03/14 11:53:35;;;;;;;3.50;1.33;;;10.80;99.90;;;;;;5044499;28;20947;-70
2022/03/14 11:56:01;;;;;;;1.70;1.60;;;10.80;99.90;;;;;;5037612;28;20468;-71
2022/03/14 11:58:40;;;;;;;2.93;1.40;;;10.90;99.90;;;;;;5039567;28;20446;-69
2022/03/14 12:01:22;;;;;;;1.50;1.30;;;10.90;99.90;;;;;;5011104;28;20516;-71
2022/03/14 12:03:51;;;;;;;2.50;1.23;;;10.90;99.90;;;;;;5027722;28;20548;-69
2022/03/14 12:06:47;;;;;;;2.30;1.60;;;10.90;99.90;;;;;;5031089;28;20442;-71
2022/03/14 12:09:27;;;;;;;2.40;1.40;;;10.90;99.90;;;;;;5024754;28;20479;-70
2022/03/14 12:11:55;;;;;;;1.03;0.93;;;10.90;99.90;;;;;;5029060;28;20477;-73
2022/03/14 12:14:40;;;;;;;1.20;1.10;;;11.00;99.90;;;;;;5012197;28;20459;-69
2022/03/14 12:17:15;;;;;;;2.57;1.03;;;11.00;99.90;;;;;;5049094;28;20455;-70
2022/03/14 12:19:42;;;;;;;1.00;1.00;;;11.10;99.90;;;;;;5014477;28;20542;-69
2022/03/14 12:22:12;;;;;;;0.83;0.83;;;11.10;99.90;;;;;;5050680;28;20464;-69
2022/03/14 12:24:38;;;;;;;2.03;1.00;;;11.20;99.90;;;;;;5035009;28;20446;-73
2022/03/14 12:27:20;;;;;;;1.30;1.20;;;11.20;99.90;;;;;;5039359;28;20451;-71
2022/03/14 12:29:48;;;;;;;1.20;1.07;;;11.30;99.90;;;;;;5033620;28;20237;-70
2022/03/14 12:32:26;;;;;;;3.87;1.40;;;11.40;99.90;;;;;;5038116;28;20477;-70
2022/03/14 12:35:12;;;;;;;1.63;1.20;;;11.40;99.90;;;;;;5055936;28;20457;-69
2022/03/14 12:37:47;;;;;;;1.67;0.90;;;11.50;99.90;;;;;;5037171;28;20464;-71
2022/03/14 12:40:19;;;;;;;6.47;4.17;;;11.60;99.90;;;;;;5017430;28;20455;-71
2022/03/14 12:43:06;;;;;;;14.70;8.07;;;11.60;99.90;;;;;;5041958;28;20513;-70
2022/03/14 12:45:53;;;;;;;18.53;9.83;;;11.60;99.90;;;;;;5056167;28;20454;-69
2022/03/14 12:48:26;;;;;;;30.37;15.37;;;11.70;99.90;;;;;;5033238;28;20446;-70
2022/03/14 12:50:53;;;;;;;34.17;14.87;;;11.70;99.90;;;;;;5030336;28;20467;-69